Bacon's End, United Kingdom
Current Conditions -  °F | °C
As of 5:20 PM on Sunday 23 Nov 2014 (Local Time) from EGBB Reporting Station
Clear Clear  
Wind Chill: 39°   Ceiling: Unl
Heat Index: 43°   Visibility: 6mi
Dew Point: 39°   Wind: 6mph
Humidity: 87%   Direction: 310°NW
Pressure: 30.09"   Gusts: NA
Location:  52.48°N, 1.75°W
Report Text: EGBB 231720Z 31005KT CAVOK 06/04 Q1019
Loading
Personal Weather Stations






























Interactive Weather Map New forecast layout! Learn more

10-Day Weather Forecast

Advertisements
Track Severe Weather on mobile